sensor_id;sensor_type;location;lat;lon;timestamp;P1;durP1;ratioP1;P2;durP2;ratioP2
51618;SDS011;38518;53.164;5.430;2023-03-01T00:01:07;28.40;;;19.27;;
51618;SDS011;38518;53.164;5.430;2023-03-01T00:03:34;30.60;;;18.60;;
51618;SDS011;38518;53.164;5.430;2023-03-01T00:06:03;26.48;;;18.45;;
51618;SDS011;38518;53.164;5.430;2023-03-01T00:08:30;25.17;;;16.73;;
51618;SDS011;38518;53.164;5.430;2023-03-01T00:11:06;28.33;;;18.77;;
51618;SDS011;38518;53.164;5.430;2023-03-01T00:13:44;24.67;;;15.73;;
51618;SDS011;38518;53.164;5.430;2023-03-01T00:16:12;23.90;;;15.93;;
51618;SDS011;38518;53.164;5.430;2023-03-01T00:18:40;22.85;;;15.90;;
51618;SDS011;38518;53.164;5.430;2023-03-01T00:21:06;23.08;;;15.98;;
51618;SDS011;38518;53.164;5.430;2023-03-01T00:23:33;22.63;;;16.60;;
51618;SDS011;38518;53.164;5.430;2023-03-01T00:26:05;25.42;;;16.90;;
51618;SDS011;38518;53.164;5.430;2023-03-01T00:28:32;24.05;;;15.55;;
51618;SDS011;38518;53.164;5.430;2023-03-01T00:31:03;24.15;;;17.85;;
51618;SDS011;38518;53.164;5.430;2023-03-01T00:33:30;22.65;;;15.98;;
51618;SDS011;38518;53.164;5.430;2023-03-01T00:35:57;17.40;;;12.25;;
51618;SDS011;38518;53.164;5.430;2023-03-01T00:38:23;22.70;;;13.32;;
51618;SDS011;38518;53.164;5.430;2023-03-01T00:40:49;64.47;;;14.30;;
51618;SDS011;38518;53.164;5.430;2023-03-01T00:43:15;61.83;;;12.77;;
51618;SDS011;38518;53.164;5.430;2023-03-01T00:45:41;48.30;;;11.02;;
51618;SDS011;38518;53.164;5.430;2023-03-01T00:48:07;17.67;;;11.65;;
51618;SDS011;38518;53.164;5.430;2023-03-01T00:50:33;18.65;;;12.18;;
51618;SDS011;38518;53.164;5.430;2023-03-01T00:52:58;20.08;;;13.18;;
51618;SDS011;38518;53.164;5.430;2023-03-01T00:55:24;28.30;;;15.98;;
51618;SDS011;38518;53.164;5.430;2023-03-01T00:57:51;23.25;;;14.63;;
51618;SDS011;38518;53.164;5.430;2023-03-01T01:00:17;22.50;;;14.50;;
51618;SDS011;38518;53.164;5.430;2023-03-01T01:02:44;22.13;;;14.88;;
51618;SDS011;38518;53.164;5.430;2023-03-01T01:05:09;24.92;;;14.35;;
51618;SDS011;38518;53.164;5.430;2023-03-01T01:07:36;29.10;;;16.73;;
51618;SDS011;38518;53.164;5.430;2023-03-01T01:10:02;27.52;;;16.05;;
51618;SDS011;38518;53.164;5.430;2023-03-01T01:12:28;102.32;;;24.20;;
51618;SDS011;38518;53.164;5.430;2023-03-01T01:14:54;40.88;;;20.10;;
51618;SDS011;38518;53.164;5.430;2023-03-01T01:17:20;46.80;;;18.70;;
51618;SDS011;38518;53.164;5.430;2023-03-01T01:19:46;34.30;;;18.10;;
51618;SDS011;38518;53.164;5.430;2023-03-01T01:22:11;30.95;;;18.20;;
51618;SDS011;38518;53.164;5.430;2023-03-01T01:24:37;28.77;;;18.10;;
51618;SDS011;38518;53.164;5.430;2023-03-01T01:27:03;30.05;;;18.05;;
51618;SDS011;38518;53.164;5.430;2023-03-01T01:29:29;50.08;;;20.75;;
51618;SDS011;38518;53.164;5.430;2023-03-01T01:31:54;51.03;;;20.10;;
51618;SDS011;38518;53.164;5.430;2023-03-01T01:34:21;34.08;;;18.70;;
51618;SDS011;38518;53.164;5.430;2023-03-01T01:36:50;25.75;;;16.90;;
51618;SDS011;38518;53.164;5.430;2023-03-01T01:39:26;29.25;;;15.68;;
51618;SDS011;38518;53.164;5.430;2023-03-01T01:41:52;26.38;;;15.90;;
51618;SDS011;38518;53.164;5.430;2023-03-01T01:49:44;258.13;;;29.75;;
51618;SDS011;38518;53.164;5.430;2023-03-01T01:52:16;152.23;;;23.42;;
51618;SDS011;38518;53.164;5.430;2023-03-01T01:54:48;128.32;;;21.15;;
51618;SDS011;38518;53.164;5.430;2023-03-01T01:57:25;49.88;;;17.55;;
51618;SDS011;38518;53.164;5.430;2023-03-01T01:59:59;158.18;;;21.85;;
51618;SDS011;38518;53.164;5.430;2023-03-01T02:02:29;102.18;;;21.55;;
51618;SDS011;38518;53.164;5.430;2023-03-01T02:05:01;110.18;;;19.92;;
51618;SDS011;38518;53.164;5.430;2023-03-01T02:07:44;21.23;;;11.98;;
51618;SDS011;38518;53.164;5.430;2023-03-01T02:10:12;16.58;;;11.95;;
51618;SDS011;38518;53.164;5.430;2023-03-01T02:12:43;19.90;;;12.40;;
51618;SDS011;38518;53.164;5.430;2023-03-01T02:15:10;22.90;;;12.60;;
51618;SDS011;38518;53.164;5.430;2023-03-01T02:17:36;31.92;;;12.60;;
51618;SDS011;38518;53.164;5.430;2023-03-01T02:23:23;65.15;;;14.63;;
51618;SDS011;38518;53.164;5.430;2023-03-01T02:30:57;78.85;;;13.68;;
51618;SDS011;38518;53.164;5.430;2023-03-01T02:33:42;51.15;;;13.27;;
51618;SDS011;38518;53.164;5.430;2023-03-01T02:36:47;14.25;;;10.82;;
51618;SDS011;38518;53.164;5.430;2023-03-01T02:39:38;38.38;;;12.38;;
51618;SDS011;38518;53.164;5.430;2023-03-01T02:42:12;26.35;;;11.07;;
51618;SDS011;38518;53.164;5.430;2023-03-01T02:44:41;16.73;;;11.82;;
51618;SDS011;38518;53.164;5.430;2023-03-01T02:47:07;17.63;;;11.77;;
51618;SDS011;38518;53.164;5.430;2023-03-01T02:49:34;15.48;;;11.23;;
51618;SDS011;38518;53.164;5.430;2023-03-01T02:54:48;16.50;;;11.90;;
51618;SDS011;38518;53.164;5.430;2023-03-01T02:57:23;16.35;;;11.95;;
51618;SDS011;38518;53.164;5.430;2023-03-01T02:59:49;15.75;;;11.45;;
51618;SDS011;38518;53.164;5.430;2023-03-01T03:02:24;19.15;;;11.93;;
51618;SDS011;38518;53.164;5.430;2023-03-01T03:05:11;16.05;;;11.73;;
51618;SDS011;38518;53.164;5.430;2023-03-01T03:07:40;18.33;;;12.10;;
51618;SDS011;38518;53.164;5.430;2023-03-01T03:10:09;22.98;;;14.63;;
51618;SDS011;38518;53.164;5.430;2023-03-01T03:12:48;21.20;;;12.63;;
51618;SDS011;38518;53.164;5.430;2023-03-01T03:15:28;21.10;;;12.95;;
51618;SDS011;38518;53.164;5.430;2023-03-01T03:18:01;21.33;;;13.07;;
51618;SDS011;38518;53.164;5.430;2023-03-01T03:20:28;25.17;;;14.35;;
51618;SDS011;38518;53.164;5.430;2023-03-01T03:22:55;19.33;;;13.10;;
51618;SDS011;38518;53.164;5.430;2023-03-01T03:25:23;24.80;;;14.35;;
51618;SDS011;38518;53.164;5.430;2023-03-01T03:27:53;25.50;;;14.35;;
51618;SDS011;38518;53.164;5.430;2023-03-01T03:30:22;31.70;;;14.45;;
51618;SDS011;38518;53.164;5.430;2023-03-01T03:32:52;26.50;;;15.60;;
51618;SDS011;38518;53.164;5.430;2023-03-01T03:35:41;27.50;;;15.05;;
51618;SDS011;38518;53.164;5.430;2023-03-01T03:38:12;25.38;;;14.52;;
51618;SDS011;38518;53.164;5.430;2023-03-01T03:40:43;24.00;;;15.05;;
51618;SDS011;38518;53.164;5.430;2023-03-01T03:43:14;24.17;;;15.43;;
51618;SDS011;38518;53.164;5.430;2023-03-01T03:45:43;26.30;;;14.88;;
51618;SDS011;38518;53.164;5.430;2023-03-01T03:48:10;23.33;;;14.80;;
51618;SDS011;38518;53.164;5.430;2023-03-01T03:50:37;23.08;;;14.38;;
51618;SDS011;38518;53.164;5.430;2023-03-01T03:53:05;24.08;;;14.95;;
51618;SDS011;38518;53.164;5.430;2023-03-01T03:55:33;23.35;;;14.57;;
51618;SDS011;38518;53.164;5.430;2023-03-01T03:58:00;26.83;;;15.02;;
51618;SDS011;38518;53.164;5.430;2023-03-01T04:00:32;22.17;;;14.43;;
51618;SDS011;38518;53.164;5.430;2023-03-01T04:03:03;37.85;;;16.50;;
51618;SDS011;38518;53.164;5.430;2023-03-01T04:05:29;30.13;;;16.45;;
51618;SDS011;38518;53.164;5.430;2023-03-01T04:07:57;26.48;;;15.85;;
51618;SDS011;38518;53.164;5.430;2023-03-01T04:10:29;24.48;;;15.15;;
51618;SDS011;38518;53.164;5.430;2023-03-01T04:12:57;25.08;;;14.75;;
51618;SDS011;38518;53.164;5.430;2023-03-01T04:15:23;28.08;;;14.82;;
51618;SDS011;38518;53.164;5.430;2023-03-01T04:17:51;23.92;;;14.75;;
51618;SDS011;38518;53.164;5.430;2023-03-01T04:20:19;25.45;;;14.02;;
51618;SDS011;38518;53.164;5.430;2023-03-01T04:22:50;25.05;;;14.80;;
51618;SDS011;38518;53.164;5.430;2023-03-01T04:25:17;38.65;;;16.30;;
51618;SDS011;38518;53.164;5.430;2023-03-01T04:27:43;21.80;;;14.07;;
51618;SDS011;38518;53.164;5.430;2023-03-01T04:30:10;22.02;;;14.43;;
51618;SDS011;38518;53.164;5.430;2023-03-01T04:32:36;23.67;;;14.05;;
51618;SDS011;38518;53.164;5.430;2023-03-01T04:35:02;23.23;;;14.07;;
51618;SDS011;38518;53.164;5.430;2023-03-01T04:37:28;26.20;;;15.95;;
51618;SDS011;38518;53.164;5.430;2023-03-01T04:39:54;26.17;;;15.15;;
51618;SDS011;38518;53.164;5.430;2023-03-01T04:42:20;29.33;;;20.90;;
51618;SDS011;38518;53.164;5.430;2023-03-01T04:44:46;29.92;;;16.17;;
51618;SDS011;38518;53.164;5.430;2023-03-01T04:47:12;26.77;;;16.08;;
51618;SDS011;38518;53.164;5.430;2023-03-01T04:49:38;34.30;;;19.27;;
51618;SDS011;38518;53.164;5.430;2023-03-01T04:52:04;26.70;;;16.02;;
51618;SDS011;38518;53.164;5.430;2023-03-01T04:54:35;27.10;;;14.60;;
51618;SDS011;38518;53.164;5.430;2023-03-01T04:57:01;28.55;;;15.45;;
51618;SDS011;38518;53.164;5.430;2023-03-01T04:59:28;29.05;;;16.45;;
51618;SDS011;38518;53.164;5.430;2023-03-01T05:01:54;25.15;;;15.35;;
51618;SDS011;38518;53.164;5.430;2023-03-01T05:04:22;34.20;;;23.42;;
51618;SDS011;38518;53.164;5.430;2023-03-01T05:06:48;28.02;;;17.08;;
51618;SDS011;38518;53.164;5.430;2023-03-01T05:09:14;30.30;;;16.05;;
51618;SDS011;38518;53.164;5.430;2023-03-01T05:11:40;30.73;;;15.45;;
51618;SDS011;38518;53.164;5.430;2023-03-01T05:14:06;29.67;;;16.15;;
51618;SDS011;38518;53.164;5.430;2023-03-01T05:16:34;31.00;;;18.20;;
51618;SDS011;38518;53.164;5.430;2023-03-01T05:19:01;32.47;;;17.42;;
51618;SDS011;38518;53.164;5.430;2023-03-01T05:21:39;29.05;;;18.67;;
51618;SDS011;38518;53.164;5.430;2023-03-01T05:24:25;29.38;;;15.93;;
51618;SDS011;38518;53.164;5.430;2023-03-01T05:26:51;46.97;;;18.58;;
51618;SDS011;38518;53.164;5.430;2023-03-01T05:29:18;34.78;;;16.75;;
51618;SDS011;38518;53.164;5.430;2023-03-01T05:31:57;49.58;;;17.35;;
51618;SDS011;38518;53.164;5.430;2023-03-01T05:34:26;47.22;;;16.50;;
51618;SDS011;38518;53.164;5.430;2023-03-01T05:36:56;69.63;;;17.52;;
51618;SDS011;38518;53.164;5.430;2023-03-01T05:39:23;142.50;;;20.10;;
51618;SDS011;38518;53.164;5.430;2023-03-01T05:41:55;151.20;;;20.85;;
51618;SDS011;38518;53.164;5.430;2023-03-01T05:44:22;73.60;;;15.90;;
51618;SDS011;38518;53.164;5.430;2023-03-01T05:46:48;85.07;;;18.35;;
51618;SDS011;38518;53.164;5.430;2023-03-01T05:49:14;63.47;;;17.27;;
51618;SDS011;38518;53.164;5.430;2023-03-01T05:51:41;91.63;;;18.58;;
51618;SDS011;38518;53.164;5.430;2023-03-01T05:54:09;210.80;;;24.42;;
51618;SDS011;38518;53.164;5.430;2023-03-01T05:56:35;206.60;;;22.52;;
51618;SDS011;38518;53.164;5.430;2023-03-01T05:59:02;106.40;;;18.40;;
51618;SDS011;38518;53.164;5.430;2023-03-01T06:01:33;128.57;;;17.45;;
51618;SDS011;38518;53.164;5.430;2023-03-01T06:04:00;146.43;;;18.50;;
51618;SDS011;38518;53.164;5.430;2023-03-01T06:06:26;94.82;;;17.05;;
51618;SDS011;38518;53.164;5.430;2023-03-01T06:08:53;178.82;;;23.40;;
51618;SDS011;38518;53.164;5.430;2023-03-01T06:11:19;78.70;;;18.02;;
51618;SDS011;38518;53.164;5.430;2023-03-01T06:13:46;147.55;;;17.58;;
51618;SDS011;38518;53.164;5.430;2023-03-01T06:16:12;173.40;;;21.02;;
51618;SDS011;38518;53.164;5.430;2023-03-01T06:18:39;76.78;;;16.90;;
51618;SDS011;38518;53.164;5.430;2023-03-01T06:21:05;49.30;;;14.80;;
51618;SDS011;38518;53.164;5.430;2023-03-01T06:23:32;73.97;;;15.43;;
51618;SDS011;38518;53.164;5.430;2023-03-01T06:25:58;27.30;;;13.25;;
51618;SDS011;38518;53.164;5.430;2023-03-01T06:28:24;83.05;;;16.25;;
51618;SDS011;38518;53.164;5.430;2023-03-01T06:30:52;87.60;;;17.10;;
51618;SDS011;38518;53.164;5.430;2023-03-01T06:33:21;91.28;;;16.55;;
51618;SDS011;38518;53.164;5.430;2023-03-01T06:35:49;62.58;;;15.75;;
51618;SDS011;38518;53.164;5.430;2023-03-01T06:38:15;20.58;;;11.90;;
51618;SDS011;38518;53.164;5.430;2023-03-01T06:40:46;18.60;;;12.15;;
51618;SDS011;38518;53.164;5.430;2023-03-01T06:43:27;19.13;;;11.27;;
51618;SDS011;38518;53.164;5.430;2023-03-01T06:45:53;23.13;;;13.02;;
51618;SDS011;38518;53.164;5.430;2023-03-01T06:48:21;35.60;;;13.20;;
51618;SDS011;38518;53.164;5.430;2023-03-01T06:50:47;121.07;;;17.00;;
51618;SDS011;38518;53.164;5.430;2023-03-01T06:53:16;64.35;;;14.20;;
51618;SDS011;38518;53.164;5.430;2023-03-01T06:55:47;23.63;;;12.40;;
51618;SDS011;38518;53.164;5.430;2023-03-01T06:58:29;32.08;;;13.02;;
51618;SDS011;38518;53.164;5.430;2023-03-01T07:00:58;53.13;;;13.23;;
51618;SDS011;38518;53.164;5.430;2023-03-01T07:03:24;88.90;;;15.93;;
51618;SDS011;38518;53.164;5.430;2023-03-01T07:05:51;43.92;;;15.60;;
51618;SDS011;38518;53.164;5.430;2023-03-01T07:08:18;68.32;;;15.75;;
51618;SDS011;38518;53.164;5.430;2023-03-01T07:11:00;37.28;;;13.02;;
51618;SDS011;38518;53.164;5.430;2023-03-01T07:13:29;52.67;;;14.00;;
51618;SDS011;38518;53.164;5.430;2023-03-01T07:15:57;70.15;;;14.88;;
51618;SDS011;38518;53.164;5.430;2023-03-01T07:18:46;28.33;;;11.90;;
51618;SDS011;38518;53.164;5.430;2023-03-01T07:21:21;14.25;;;9.90;;
51618;SDS011;38518;53.164;5.430;2023-03-01T07:24:01;31.15;;;9.57;;
51618;SDS011;38518;53.164;5.430;2023-03-01T07:26:27;23.45;;;8.85;;
51618;SDS011;38518;53.164;5.430;2023-03-01T07:28:53;18.10;;;8.32;;
51618;SDS011;38518;53.164;5.430;2023-03-01T07:31:26;45.08;;;10.80;;
51618;SDS011;38518;53.164;5.430;2023-03-01T07:33:57;110.63;;;12.13;;
51618;SDS011;38518;53.164;5.430;2023-03-01T07:36:32;43.20;;;9.57;;
51618;SDS011;38518;53.164;5.430;2023-03-01T07:39:15;80.03;;;12.38;;
51618;SDS011;38518;53.164;5.430;2023-03-01T09:03:21;14.00;;;11.13;;
51618;SDS011;38518;53.164;5.430;2023-03-01T09:05:51;13.80;;;12.27;;
51618;SDS011;38518;53.164;5.430;2023-03-01T09:08:35;14.68;;;12.82;;
51618;SDS011;38518;53.164;5.430;2023-03-01T09:11:10;14.52;;;11.68;;
51618;SDS011;38518;53.164;5.430;2023-03-01T09:17:55;13.25;;;11.73;;
51618;SDS011;38518;53.164;5.430;2023-03-01T09:31:14;17.55;;;14.18;;
51618;SDS011;38518;53.164;5.430;2023-03-01T09:34:03;14.65;;;13.20;;
51618;SDS011;38518;53.164;5.430;2023-03-01T09:36:43;13.85;;;12.43;;
51618;SDS011;38518;53.164;5.430;2023-03-01T09:39:44;14.48;;;12.90;;
51618;SDS011;38518;53.164;5.430;2023-03-01T09:43:13;15.88;;;14.05;;
51618;SDS011;38518;53.164;5.430;2023-03-01T09:46:03;17.42;;;15.57;;
51618;SDS011;38518;53.164;5.430;2023-03-01T09:49:03;16.52;;;14.75;;
51618;SDS011;38518;53.164;5.430;2023-03-01T10:01:34;15.30;;;13.80;;
51618;SDS011;38518;53.164;5.430;2023-03-01T10:09:36;13.52;;;12.20;;
51618;SDS011;38518;53.164;5.430;2023-03-01T10:12:07;14.20;;;12.70;;
51618;SDS011;38518;53.164;5.430;2023-03-01T10:15:25;13.30;;;12.00;;
51618;SDS011;38518;53.164;5.430;2023-03-01T10:17:37;12.38;;;10.95;;
51618;SDS011;38518;53.164;5.430;2023-03-01T10:20:16;12.63;;;11.32;;
51618;SDS011;38518;53.164;5.430;2023-03-01T10:22:46;12.98;;;11.77;;
51618;SDS011;38518;53.164;5.430;2023-03-01T10:25:17;12.13;;;10.93;;
51618;SDS011;38518;53.164;5.430;2023-03-01T10:28:15;12.13;;;10.52;;
51618;SDS011;38518;53.164;5.430;2023-03-01T10:30:42;12.13;;;10.98;;
51618;SDS011;38518;53.164;5.430;2023-03-01T10:35:48;11.43;;;10.32;;
51618;SDS011;38518;53.164;5.430;2023-03-01T10:38:15;13.02;;;11.73;;
51618;SDS011;38518;53.164;5.430;2023-03-01T10:41:24;12.25;;;11.13;;
51618;SDS011;38518;53.164;5.430;2023-03-01T10:44:03;10.95;;;10.00;;
51618;SDS011;38518;53.164;5.430;2023-03-01T10:46:58;11.95;;;10.85;;
51618;SDS011;38518;53.164;5.430;2023-03-01T10:49:34;10.55;;;9.48;;
51618;SDS011;38518;53.164;5.430;2023-03-01T10:56:53;12.18;;;10.93;;
51618;SDS011;38518;53.164;5.430;2023-03-01T10:59:31;11.32;;;10.23;;
51618;SDS011;38518;53.164;5.430;2023-03-01T11:04:29;11.18;;;10.18;;
51618;SDS011;38518;53.164;5.430;2023-03-01T11:06:59;12.30;;;9.60;;
51618;SDS011;38518;53.164;5.430;2023-03-01T11:09:25;10.82;;;9.73;;
51618;SDS011;38518;53.164;5.430;2023-03-01T11:11:57;9.82;;;8.93;;
51618;SDS011;38518;53.164;5.430;2023-03-01T11:14:27;9.38;;;8.50;;
51618;SDS011;38518;53.164;5.430;2023-03-01T11:16:58;10.10;;;9.20;;
51618;SDS011;38518;53.164;5.430;2023-03-01T11:19:25;9.45;;;8.55;;
51618;SDS011;38518;53.164;5.430;2023-03-01T11:21:53;9.15;;;8.35;;
51618;SDS011;38518;53.164;5.430;2023-03-01T11:24:23;8.73;;;7.97;;
51618;SDS011;38518;53.164;5.430;2023-03-01T11:26:52;9.00;;;8.15;;
51618;SDS011;38518;53.164;5.430;2023-03-01T11:31:54;8.85;;;8.15;;
51618;SDS011;38518;53.164;5.430;2023-03-01T11:34:25;8.95;;;8.05;;
51618;SDS011;38518;53.164;5.430;2023-03-01T11:36:54;7.47;;;6.78;;
51618;SDS011;38518;53.164;5.430;2023-03-01T11:39:31;8.48;;;7.30;;
51618;SDS011;38518;53.164;5.430;2023-03-01T11:42:02;8.65;;;6.63;;
51618;SDS011;38518;53.164;5.430;2023-03-01T11:44:30;7.97;;;7.22;;
51618;SDS011;38518;53.164;5.430;2023-03-01T11:54:44;9.98;;;8.98;;
51618;SDS011;38518;53.164;5.430;2023-03-01T12:02:40;10.43;;;9.52;;
51618;SDS011;38518;53.164;5.430;2023-03-01T12:07:53;9.20;;;8.40;;
51618;SDS011;38518;53.164;5.430;2023-03-01T12:10:28;10.13;;;9.13;;
51618;SDS011;38518;53.164;5.430;2023-03-01T12:15:46;9.88;;;9.00;;
51618;SDS011;38518;53.164;5.430;2023-03-01T12:18:51;10.20;;;9.20;;
51618;SDS011;38518;53.164;5.430;2023-03-01T12:44:11;10.45;;;9.52;;
51618;SDS011;38518;53.164;5.430;2023-03-01T12:46:41;10.57;;;9.57;;
51618;SDS011;38518;53.164;5.430;2023-03-01T12:51:43;13.40;;;12.20;;
51618;SDS011;38518;53.164;5.430;2023-03-01T12:54:14;12.65;;;11.38;;
51618;SDS011;38518;53.164;5.430;2023-03-01T12:56:45;12.77;;;11.55;;
51618;SDS011;38518;53.164;5.430;2023-03-01T13:04:32;11.98;;;10.77;;
51618;SDS011;38518;53.164;5.430;2023-03-01T13:09:51;12.32;;;11.23;;
51618;SDS011;38518;53.164;5.430;2023-03-01T13:15:52;12.00;;;10.77;;
51618;SDS011;38518;53.164;5.430;2023-03-01T13:20:57;12.10;;;10.98;;
51618;SDS011;38518;53.164;5.430;2023-03-01T13:23:37;10.70;;;9.70;;
51618;SDS011;38518;53.164;5.430;2023-03-01T13:26:11;12.05;;;10.95;;
51618;SDS011;38518;53.164;5.430;2023-03-01T13:44:56;11.65;;;10.55;;
51618;SDS011;38518;53.164;5.430;2023-03-01T13:47:28;12.25;;;11.10;;
51618;SDS011;38518;53.164;5.430;2023-03-01T13:49:59;11.95;;;10.75;;
51618;SDS011;38518;53.164;5.430;2023-03-01T14:05:21;13.77;;;12.48;;
51618;SDS011;38518;53.164;5.430;2023-03-01T14:27:56;13.98;;;12.48;;
51618;SDS011;38518;53.164;5.430;2023-03-01T14:30:47;13.35;;;12.15;;
51618;SDS011;38518;53.164;5.430;2023-03-01T14:36:13;13.38;;;12.18;;
51618;SDS011;38518;53.164;5.430;2023-03-01T15:13:23;12.88;;;11.68;;
51618;SDS011;38518;53.164;5.430;2023-03-01T15:32:24;13.27;;;11.98;;
51618;SDS011;38518;53.164;5.430;2023-03-01T15:34:53;12.45;;;11.25;;
51618;SDS011;38518;53.164;5.430;2023-03-01T15:44:27;13.52;;;11.98;;
51618;SDS011;38518;53.164;5.430;2023-03-01T15:46:59;13.73;;;12.20;;
51618;SDS011;38518;53.164;5.430;2023-03-01T15:58:04;14.02;;;12.52;;
51618;SDS011;38518;53.164;5.430;2023-03-01T16:00:34;13.43;;;12.13;;
51618;SDS011;38518;53.164;5.430;2023-03-01T16:03:00;13.20;;;11.80;;
51618;SDS011;38518;53.164;5.430;2023-03-01T16:05:27;12.00;;;10.82;;
51618;SDS011;38518;53.164;5.430;2023-03-01T16:08:02;11.77;;;10.55;;
51618;SDS011;38518;53.164;5.430;2023-03-01T16:10:31;12.15;;;10.98;;
51618;SDS011;38518;53.164;5.430;2023-03-01T16:12:58;11.95;;;10.70;;
51618;SDS011;38518;53.164;5.430;2023-03-01T16:15:28;11.55;;;10.45;;
51618;SDS011;38518;53.164;5.430;2023-03-01T16:24:57;13.18;;;11.73;;
51618;SDS011;38518;53.164;5.430;2023-03-01T16:27:30;14.45;;;12.40;;
51618;SDS011;38518;53.164;5.430;2023-03-01T16:29:56;13.60;;;11.98;;
51618;SDS011;38518;53.164;5.430;2023-03-01T16:32:24;14.60;;;13.10;;
51618;SDS011;38518;53.164;5.430;2023-03-01T16:34:50;17.25;;;13.20;;
51618;SDS011;38518;53.164;5.430;2023-03-01T16:37:16;15.13;;;13.50;;
51618;SDS011;38518;53.164;5.430;2023-03-01T16:39:47;14.70;;;13.20;;
51618;SDS011;38518;53.164;5.430;2023-03-01T16:42:21;15.57;;;13.88;;
51618;SDS011;38518;53.164;5.430;2023-03-01T16:44:56;18.42;;;13.88;;
51618;SDS011;38518;53.164;5.430;2023-03-01T16:47:24;15.93;;;14.23;;
51618;SDS011;38518;53.164;5.430;2023-03-01T16:49:53;15.52;;;12.85;;
51618;SDS011;38518;53.164;5.430;2023-03-01T16:52:20;19.10;;;12.80;;
51618;SDS011;38518;53.164;5.430;2023-03-01T16:54:47;17.55;;;15.30;;
51618;SDS011;38518;53.164;5.430;2023-03-01T16:57:13;22.42;;;18.30;;
51618;SDS011;38518;53.164;5.430;2023-03-01T16:59:39;21.17;;;14.90;;
51618;SDS011;38518;53.164;5.430;2023-03-01T17:02:05;15.35;;;13.52;;
51618;SDS011;38518;53.164;5.430;2023-03-01T17:04:35;15.70;;;13.82;;
51618;SDS011;38518;53.164;5.430;2023-03-01T17:07:01;16.42;;;12.27;;
51618;SDS011;38518;53.164;5.430;2023-03-01T17:09:27;16.48;;;14.38;;
51618;SDS011;38518;53.164;5.430;2023-03-01T17:11:53;16.38;;;14.63;;
51618;SDS011;38518;53.164;5.430;2023-03-01T17:14:19;19.75;;;16.10;;
51618;SDS011;38518;53.164;5.430;2023-03-01T17:16:46;19.98;;;16.88;;
51618;SDS011;38518;53.164;5.430;2023-03-01T17:19:12;25.58;;;14.75;;
51618;SDS011;38518;53.164;5.430;2023-03-01T17:21:43;24.75;;;15.45;;
51618;SDS011;38518;53.164;5.430;2023-03-01T17:24:09;22.00;;;18.52;;
51618;SDS011;38518;53.164;5.430;2023-03-01T17:26:35;22.67;;;18.83;;
51618;SDS011;38518;53.164;5.430;2023-03-01T17:29:01;23.48;;;19.13;;
51618;SDS011;38518;53.164;5.430;2023-03-01T17:31:29;23.70;;;20.05;;
51618;SDS011;38518;53.164;5.430;2023-03-01T17:34:00;27.50;;;17.45;;
51618;SDS011;38518;53.164;5.430;2023-03-01T17:36:26;24.17;;;15.48;;
51618;SDS011;38518;53.164;5.430;2023-03-01T17:38:52;24.60;;;17.10;;
51618;SDS011;38518;53.164;5.430;2023-03-01T17:41:18;21.83;;;19.48;;
51618;SDS011;38518;53.164;5.430;2023-03-01T17:43:46;21.42;;;18.23;;
51618;SDS011;38518;53.164;5.430;2023-03-01T17:46:12;20.42;;;18.23;;
51618;SDS011;38518;53.164;5.430;2023-03-01T17:48:38;23.10;;;17.98;;
51618;SDS011;38518;53.164;5.430;2023-03-01T17:51:07;21.00;;;18.77;;
51618;SDS011;38518;53.164;5.430;2023-03-01T17:53:36;21.25;;;17.98;;
51618;SDS011;38518;53.164;5.430;2023-03-01T17:56:03;21.92;;;18.88;;
51618;SDS011;38518;53.164;5.430;2023-03-01T17:58:37;21.92;;;18.33;;
51618;SDS011;38518;53.164;5.430;2023-03-01T18:01:06;27.15;;;19.73;;
51618;SDS011;38518;53.164;5.430;2023-03-01T18:03:34;23.85;;;18.80;;
51618;SDS011;38518;53.164;5.430;2023-03-01T18:06:00;22.13;;;18.45;;
51618;SDS011;38518;53.164;5.430;2023-03-01T18:08:29;21.83;;;18.10;;
51618;SDS011;38518;53.164;5.430;2023-03-01T18:10:58;22.00;;;16.50;;
51618;SDS011;38518;53.164;5.430;2023-03-01T18:13:24;22.42;;;19.25;;
51618;SDS011;38518;53.164;5.430;2023-03-01T18:15:50;23.52;;;16.75;;
51618;SDS011;38518;53.164;5.430;2023-03-01T18:18:16;23.67;;;19.23;;
51618;SDS011;38518;53.164;5.430;2023-03-01T18:20:42;23.50;;;19.23;;
51618;SDS011;38518;53.164;5.430;2023-03-01T18:23:08;21.92;;;14.68;;
51618;SDS011;38518;53.164;5.430;2023-03-01T18:25:34;23.10;;;20.55;;
51618;SDS011;38518;53.164;5.430;2023-03-01T18:28:06;23.65;;;19.77;;
51618;SDS011;38518;53.164;5.430;2023-03-01T18:30:32;22.98;;;20.42;;
51618;SDS011;38518;53.164;5.430;2023-03-01T18:33:00;24.88;;;17.05;;
51618;SDS011;38518;53.164;5.430;2023-03-01T18:35:26;24.35;;;19.45;;
51618;SDS011;38518;53.164;5.430;2023-03-01T18:37:55;22.92;;;16.17;;
51618;SDS011;38518;53.164;5.430;2023-03-01T18:40:21;23.60;;;20.77;;
51618;SDS011;38518;53.164;5.430;2023-03-01T18:42:47;24.80;;;19.38;;
51618;SDS011;38518;53.164;5.430;2023-03-01T18:45:13;22.23;;;19.83;;
51618;SDS011;38518;53.164;5.430;2023-03-01T18:47:41;25.73;;;16.77;;
51618;SDS011;38518;53.164;5.430;2023-03-01T18:50:10;20.70;;;18.23;;
51618;SDS011;38518;53.164;5.430;2023-03-01T18:52:36;22.48;;;18.58;;
51618;SDS011;38518;53.164;5.430;2023-03-01T18:55:08;20.90;;;14.40;;
51618;SDS011;38518;53.164;5.430;2023-03-01T18:57:34;20.30;;;18.05;;
51618;SDS011;38518;53.164;5.430;2023-03-01T19:00:01;21.70;;;15.63;;
51618;SDS011;38518;53.164;5.430;2023-03-01T19:02:28;21.30;;;18.02;;
51618;SDS011;38518;53.164;5.430;2023-03-01T19:04:54;20.67;;;15.45;;
51618;SDS011;38518;53.164;5.430;2023-03-01T19:07:19;20.23;;;17.13;;
51618;SDS011;38518;53.164;5.430;2023-03-01T19:09:45;20.45;;;16.77;;
51618;SDS011;38518;53.164;5.430;2023-03-01T19:12:11;18.83;;;14.02;;
51618;SDS011;38518;53.164;5.430;2023-03-01T19:14:37;21.17;;;17.42;;
51618;SDS011;38518;53.164;5.430;2023-03-01T19:17:03;18.08;;;15.40;;
51618;SDS011;38518;53.164;5.430;2023-03-01T19:19:29;18.20;;;16.10;;
51618;SDS011;38518;53.164;5.430;2023-03-01T19:21:55;20.45;;;14.32;;
51618;SDS011;38518;53.164;5.430;2023-03-01T19:24:20;19.17;;;14.73;;
51618;SDS011;38518;53.164;5.430;2023-03-01T19:26:46;14.90;;;12.73;;
51618;SDS011;38518;53.164;5.430;2023-03-01T19:29:12;18.15;;;14.75;;
51618;SDS011;38518;53.164;5.430;2023-03-01T19:31:38;17.33;;;12.55;;
51618;SDS011;38518;53.164;5.430;2023-03-01T19:34:04;17.60;;;11.43;;
51618;SDS011;38518;53.164;5.430;2023-03-01T19:36:30;15.00;;;11.00;;
51618;SDS011;38518;53.164;5.430;2023-03-01T19:39:02;16.35;;;11.40;;
51618;SDS011;38518;53.164;5.430;2023-03-01T19:41:30;18.33;;;11.70;;
51618;SDS011;38518;53.164;5.430;2023-03-01T19:43:56;14.73;;;13.10;;
51618;SDS011;38518;53.164;5.430;2023-03-01T19:46:22;15.70;;;12.60;;
51618;SDS011;38518;53.164;5.430;2023-03-01T19:48:50;15.05;;;10.98;;
51618;SDS011;38518;53.164;5.430;2023-03-01T19:51:18;14.80;;;12.70;;
51618;SDS011;38518;53.164;5.430;2023-03-01T19:53:44;15.90;;;11.30;;
51618;SDS011;38518;53.164;5.430;2023-03-01T19:56:10;17.08;;;11.50;;
51618;SDS011;38518;53.164;5.430;2023-03-01T19:58:36;18.88;;;12.75;;
51618;SDS011;38518;53.164;5.430;2023-03-01T20:01:03;19.85;;;13.05;;
51618;SDS011;38518;53.164;5.430;2023-03-01T20:03:33;17.38;;;11.88;;
51618;SDS011;38518;53.164;5.430;2023-03-01T20:05:59;18.17;;;11.57;;